sensor_id;sensor_type;location;lat;lon;timestamp;temperature;humidity
18777;DHT22;9517;51.174;4.160;2024-02-21T00:24:48;9.40;99.90
18777;DHT22;9517;51.174;4.160;2024-02-21T00:27:15;9.40;99.90
18777;DHT22;9517;51.174;4.160;2024-02-21T00:29:42;9.30;99.90
18777;DHT22;9517;51.174;4.160;2024-02-21T00:32:09;9.30;99.90
18777;DHT22;9517;51.174;4.160;2024-02-21T00:34:36;9.30;99.90
18777;DHT22;9517;51.174;4.160;2024-02-21T00:37:03;9.20;99.90
18777;DHT22;9517;51.174;4.160;2024-02-21T00:39:31;9.30;99.90
18777;DHT22;9517;51.174;4.160;2024-02-21T00:41:59;9.30;99.90
18777;DHT22;9517;51.174;4.160;2024-02-21T00:44:28;9.30;99.90
18777;DHT22;9517;51.174;4.160;2024-02-21T00:46:55;9.30;99.90
18777;DHT22;9517;51.174;4.160;2024-02-21T00:49:22;9.40;99.90
18777;DHT22;9517;51.174;4.160;2024-02-21T00:51:49;9.40;99.90
18777;DHT22;9517;51.174;4.160;2024-02-21T00:54:16;9.40;99.90
18777;DHT22;9517;51.174;4.160;2024-02-21T00:56:43;9.30;99.90
18777;DHT22;9517;51.174;4.160;2024-02-21T00:59:12;9.20;99.90
18777;DHT22;9517;51.174;4.160;2024-02-21T01:01:39;9.10;99.90
18777;DHT22;9517;51.174;4.160;2024-02-21T01:04:08;9.10;99.90
18777;DHT22;9517;51.174;4.160;2024-02-21T01:06:35;9.10;99.90
18777;DHT22;9517;51.174;4.160;2024-02-21T01:09:02;9.20;99.90
18777;DHT22;9517;51.174;4.160;2024-02-21T01:11:29;9.20;99.90
18777;DHT22;9517;51.174;4.160;2024-02-21T01:13:56;9.20;99.90
18777;DHT22;9517;51.174;4.160;2024-02-21T01:16:25;9.20;99.90
18777;DHT22;9517;51.174;4.160;2024-02-21T01:18:52;9.20;99.90
18777;DHT22;9517;51.174;4.160;2024-02-21T01:21:20;9.10;99.90
18777;DHT22;9517;51.174;4.160;2024-02-21T01:23:47;9.20;99.90
18777;DHT22;9517;51.174;4.160;2024-02-21T01:26:15;9.20;99.90
18777;DHT22;9517;51.174;4.160;2024-02-21T01:28:42;9.10;99.90
18777;DHT22;9517;51.174;4.160;2024-02-21T01:31:09;9.20;99.90
18777;DHT22;9517;51.174;4.160;2024-02-21T01:33:37;9.20;99.90
18777;DHT22;9517;51.174;4.160;2024-02-21T01:36:05;9.20;99.90
18777;DHT22;9517;51.174;4.160;2024-02-21T01:38:33;9.10;99.90
18777;DHT22;9517;51.174;4.160;2024-02-21T01:41:00;9.10;99.90
18777;DHT22;9517;51.174;4.160;2024-02-21T01:43:27;9.10;99.90
18777;DHT22;9517;51.174;4.160;2024-02-21T01:45:55;9.10;99.90
18777;DHT22;9517;51.174;4.160;2024-02-21T01:48:23;9.20;99.90
18777;DHT22;9517;51.174;4.160;2024-02-21T01:50:54;9.20;99.90
18777;DHT22;9517;51.174;4.160;2024-02-21T01:53:25;9.20;99.90
18777;DHT22;9517;51.174;4.160;2024-02-21T01:55:53;9.30;99.90
18777;DHT22;9517;51.174;4.160;2024-02-21T01:58:21;9.20;99.90
18777;DHT22;9517;51.174;4.160;2024-02-21T02:00:48;9.20;99.90
18777;DHT22;9517;51.174;4.160;2024-02-21T02:03:17;9.20;99.90
18777;DHT22;9517;51.174;4.160;2024-02-21T02:05:44;9.20;99.90
18777;DHT22;9517;51.174;4.160;2024-02-21T02:08:13;9.10;99.90
18777;DHT22;9517;51.174;4.160;2024-02-21T02:10:41;9.10;99.90
18777;DHT22;9517;51.174;4.160;2024-02-21T02:13:08;9.20;99.90
18777;DHT22;9517;51.174;4.160;2024-02-21T02:15:39;9.20;99.90
18777;DHT22;9517;51.174;4.160;2024-02-21T02:18:06;9.20;99.90
18777;DHT22;9517;51.174;4.160;2024-02-21T02:20:33;9.20;99.90
18777;DHT22;9517;51.174;4.160;2024-02-21T02:23:02;9.10;99.90
18777;DHT22;9517;51.174;4.160;2024-02-21T02:25:33;9.10;99.90
18777;DHT22;9517;51.174;4.160;2024-02-21T02:28:00;9.00;99.90
18777;DHT22;9517;51.174;4.160;2024-02-21T02:30:27;9.00;99.90
18777;DHT22;9517;51.174;4.160;2024-02-21T02:32:54;8.90;99.90
18777;DHT22;9517;51.174;4.160;2024-02-21T02:35:21;8.80;99.90
18777;DHT22;9517;51.174;4.160;2024-02-21T02:37:48;8.80;99.90
18777;DHT22;9517;51.174;4.160;2024-02-21T02:40:16;8.80;99.90
18777;DHT22;9517;51.174;4.160;2024-02-21T02:42:45;8.70;99.90
18777;DHT22;9517;51.174;4.160;2024-02-21T02:45:13;8.70;99.90
18777;DHT22;9517;51.174;4.160;2024-02-21T02:47:40;8.60;99.90
18777;DHT22;9517;51.174;4.160;2024-02-21T02:50:08;8.60;99.90
18777;DHT22;9517;51.174;4.160;2024-02-21T02:52:35;8.60;99.90
18777;DHT22;9517;51.174;4.160;2024-02-21T02:55:02;8.60;99.90
18777;DHT22;9517;51.174;4.160;2024-02-21T02:57:29;8.70;99.90
18777;DHT22;9517;51.174;4.160;2024-02-21T02:59:57;8.70;99.90
18777;DHT22;9517;51.174;4.160;2024-02-21T03:02:25;8.70;99.90
18777;DHT22;9517;51.174;4.160;2024-02-21T03:04:52;8.80;99.90
18777;DHT22;9517;51.174;4.160;2024-02-21T03:07:20;8.80;99.90
18777;DHT22;9517;51.174;4.160;2024-02-21T03:09:47;8.80;99.90
18777;DHT22;9517;51.174;4.160;2024-02-21T03:12:15;8.80;99.90
18777;DHT22;9517;51.174;4.160;2024-02-21T03:14:50;8.80;99.90
18777;DHT22;9517;51.174;4.160;2024-02-21T03:17:18;8.70;99.90
18777;DHT22;9517;51.174;4.160;2024-02-21T03:19:45;8.80;99.90
18777;DHT22;9517;51.174;4.160;2024-02-21T03:22:13;8.80;99.90
18777;DHT22;9517;51.174;4.160;2024-02-21T03:24:41;8.90;99.90
18777;DHT22;9517;51.174;4.160;2024-02-21T03:27:08;8.80;99.90
18777;DHT22;9517;51.174;4.160;2024-02-21T03:29:35;8.90;99.90
18777;DHT22;9517;51.174;4.160;2024-02-21T03:32:03;8.80;99.90
18777;DHT22;9517;51.174;4.160;2024-02-21T03:34:31;8.70;99.90
18777;DHT22;9517;51.174;4.160;2024-02-21T03:36:58;8.70;99.90
18777;DHT22;9517;51.174;4.160;2024-02-21T03:39:25;8.80;99.90
18777;DHT22;9517;51.174;4.160;2024-02-21T03:41:52;8.70;99.90
18777;DHT22;9517;51.174;4.160;2024-02-21T03:44:19;8.70;99.90
18777;DHT22;9517;51.174;4.160;2024-02-21T03:46:46;8.80;99.90
18777;DHT22;9517;51.174;4.160;2024-02-21T03:49:13;8.80;99.90
18777;DHT22;9517;51.174;4.160;2024-02-21T03:51:42;8.90;99.90
18777;DHT22;9517;51.174;4.160;2024-02-21T03:54:09;8.90;99.90
18777;DHT22;9517;51.174;4.160;2024-02-21T03:56:37;8.90;99.90
18777;DHT22;9517;51.174;4.160;2024-02-21T03:59:05;8.90;99.90
18777;DHT22;9517;51.174;4.160;2024-02-21T04:01:33;8.90;99.90
18777;DHT22;9517;51.174;4.160;2024-02-21T04:04:00;8.90;99.90
18777;DHT22;9517;51.174;4.160;2024-02-21T04:06:27;8.90;99.90
18777;DHT22;9517;51.174;4.160;2024-02-21T04:08:56;8.90;99.90
18777;DHT22;9517;51.174;4.160;2024-02-21T04:11:24;8.80;99.90
18777;DHT22;9517;51.174;4.160;2024-02-21T04:13:51;8.90;99.90
18777;DHT22;9517;51.174;4.160;2024-02-21T04:16:18;8.90;99.90
18777;DHT22;9517;51.174;4.160;2024-02-21T04:18:45;8.90;99.90
18777;DHT22;9517;51.174;4.160;2024-02-21T04:21:14;8.90;99.90
18777;DHT22;9517;51.174;4.160;2024-02-21T04:23:42;8.80;99.90
18777;DHT22;9517;51.174;4.160;2024-02-21T04:26:10;8.90;99.90
18777;DHT22;9517;51.174;4.160;2024-02-21T04:28:37;8.80;99.90
18777;DHT22;9517;51.174;4.160;2024-02-21T04:31:05;8.80;99.90
18777;DHT22;9517;51.174;4.160;2024-02-21T04:33:32;8.70;99.90
18777;DHT22;9517;51.174;4.160;2024-02-21T04:35:59;8.70;99.90
18777;DHT22;9517;51.174;4.160;2024-02-21T04:38:26;8.70;99.90
18777;DHT22;9517;51.174;4.160;2024-02-21T04:40:54;8.60;99.90
18777;DHT22;9517;51.174;4.160;2024-02-21T04:43:25;8.70;99.90
18777;DHT22;9517;51.174;4.160;2024-02-21T04:45:52;8.70;99.90
18777;DHT22;9517;51.174;4.160;2024-02-21T04:48:20;8.70;99.90
18777;DHT22;9517;51.174;4.160;2024-02-21T04:50:47;8.70;99.90
18777;DHT22;9517;51.174;4.160;2024-02-21T04:53:14;8.70;99.90
18777;DHT22;9517;51.174;4.160;2024-02-21T04:55:41;8.70;99.90
18777;DHT22;9517;51.174;4.160;2024-02-21T04:58:08;8.60;99.90
18777;DHT22;9517;51.174;4.160;2024-02-21T05:00:58;8.60;99.90
18777;DHT22;9517;51.174;4.160;2024-02-21T05:03:35;8.50;99.90
18777;DHT22;9517;51.174;4.160;2024-02-21T05:09:52;8.50;99.90
18777;DHT22;9517;51.174;4.160;2024-02-21T05:12:39;8.60;99.90
18777;DHT22;9517;51.174;4.160;2024-02-21T05:15:21;8.70;99.90
18777;DHT22;9517;51.174;4.160;2024-02-21T05:18:15;8.70;99.90
18777;DHT22;9517;51.174;4.160;2024-02-21T05:21:05;8.70;99.90
18777;DHT22;9517;51.174;4.160;2024-02-21T05:23:36;8.60;99.90
18777;DHT22;9517;51.174;4.160;2024-02-21T05:40:44;8.50;99.90
18777;DHT22;9517;51.174;4.160;2024-02-21T05:43:12;8.40;99.90
18777;DHT22;9517;51.174;4.160;2024-02-21T05:45:47;8.50;99.90
18777;DHT22;9517;51.174;4.160;2024-02-21T05:48:20;8.50;99.90
18777;DHT22;9517;51.174;4.160;2024-02-21T05:50:53;8.50;99.90
18777;DHT22;9517;51.174;4.160;2024-02-21T05:53:27;8.60;99.90
18777;DHT22;9517;51.174;4.160;2024-02-21T05:56:12;8.50;99.90
18777;DHT22;9517;51.174;4.160;2024-02-21T05:59:26;8.50;99.90
18777;DHT22;9517;51.174;4.160;2024-02-21T06:02:36;8.50;99.90
18777;DHT22;9517;51.174;4.160;2024-02-21T06:05:23;8.60;99.90
18777;DHT22;9517;51.174;4.160;2024-02-21T06:07:54;8.50;99.90
18777;DHT22;9517;51.174;4.160;2024-02-21T06:10:22;8.50;99.90
18777;DHT22;9517;51.174;4.160;2024-02-21T06:12:50;8.50;99.90
18777;DHT22;9517;51.174;4.160;2024-02-21T06:15:17;8.70;99.90
18777;DHT22;9517;51.174;4.160;2024-02-21T06:17:44;8.70;99.90
18777;DHT22;9517;51.174;4.160;2024-02-21T06:20:12;8.60;99.90
18777;DHT22;9517;51.174;4.160;2024-02-21T06:22:39;8.60;99.90
18777;DHT22;9517;51.174;4.160;2024-02-21T06:25:06;8.60;99.90
18777;DHT22;9517;51.174;4.160;2024-02-21T06:27:33;8.50;99.90
18777;DHT22;9517;51.174;4.160;2024-02-21T06:30:02;8.50;99.90
18777;DHT22;9517;51.174;4.160;2024-02-21T06:32:30;8.60;99.90
18777;DHT22;9517;51.174;4.160;2024-02-21T06:34:59;8.50;99.90
18777;DHT22;9517;51.174;4.160;2024-02-21T06:37:27;8.50;99.90
18777;DHT22;9517;51.174;4.160;2024-02-21T06:39:55;8.50;99.90
18777;DHT22;9517;51.174;4.160;2024-02-21T06:42:25;8.60;99.90
18777;DHT22;9517;51.174;4.160;2024-02-21T06:44:58;8.50;99.90
18777;DHT22;9517;51.174;4.160;2024-02-21T06:47:37;8.60;99.90
18777;DHT22;9517;51.174;4.160;2024-02-21T06:50:08;8.60;99.90
18777;DHT22;9517;51.174;4.160;2024-02-21T06:52:39;8.70;99.90
18777;DHT22;9517;51.174;4.160;2024-02-21T06:55:09;8.70;99.90
18777;DHT22;9517;51.174;4.160;2024-02-21T06:57:40;8.70;99.90
18777;DHT22;9517;51.174;4.160;2024-02-21T07:00:08;8.70;99.90
18777;DHT22;9517;51.174;4.160;2024-02-21T07:02:37;8.70;99.90
18777;DHT22;9517;51.174;4.160;2024-02-21T07:05:05;8.70;99.90
18777;DHT22;9517;51.174;4.160;2024-02-21T07:07:33;8.70;99.90
18777;DHT22;9517;51.174;4.160;2024-02-21T07:10:00;8.70;99.90
18777;DHT22;9517;51.174;4.160;2024-02-21T07:12:28;8.80;99.90
18777;DHT22;9517;51.174;4.160;2024-02-21T07:14:55;8.90;99.90
18777;DHT22;9517;51.174;4.160;2024-02-21T07:17:22;8.90;99.90
18777;DHT22;9517;51.174;4.160;2024-02-21T07:19:51;9.00;99.90
18777;DHT22;9517;51.174;4.160;2024-02-21T07:22:18;9.00;99.90
18777;DHT22;9517;51.174;4.160;2024-02-21T07:24:45;9.00;99.90
18777;DHT22;9517;51.174;4.160;2024-02-21T07:27:15;8.90;99.90
18777;DHT22;9517;51.174;4.160;2024-02-21T07:29:43;8.90;99.90
18777;DHT22;9517;51.174;4.160;2024-02-21T07:32:13;9.00;99.90
18777;DHT22;9517;51.174;4.160;2024-02-21T07:34:41;9.00;99.90
18777;DHT22;9517;51.174;4.160;2024-02-21T07:37:12;9.00;99.90
18777;DHT22;9517;51.174;4.160;2024-02-21T07:39:39;9.10;99.90
18777;DHT22;9517;51.174;4.160;2024-02-21T07:42:06;9.00;99.90
18777;DHT22;9517;51.174;4.160;2024-02-21T07:44:33;9.20;99.90
18777;DHT22;9517;51.174;4.160;2024-02-21T07:47:01;9.30;99.90
18777;DHT22;9517;51.174;4.160;2024-02-21T07:49:40;9.30;99.90
18777;DHT22;9517;51.174;4.160;2024-02-21T07:52:08;9.30;99.90
18777;DHT22;9517;51.174;4.160;2024-02-21T07:54:37;9.20;99.90
18777;DHT22;9517;51.174;4.160;2024-02-21T07:57:04;9.30;99.90
18777;DHT22;9517;51.174;4.160;2024-02-21T07:59:31;9.40;99.90
18777;DHT22;9517;51.174;4.160;2024-02-21T08:01:58;9.40;99.90
18777;DHT22;9517;51.174;4.160;2024-02-21T08:04:26;9.40;99.90
18777;DHT22;9517;51.174;4.160;2024-02-21T08:06:53;9.50;99.90
18777;DHT22;9517;51.174;4.160;2024-02-21T08:09:21;9.40;99.90
18777;DHT22;9517;51.174;4.160;2024-02-21T08:11:50;9.40;99.90
18777;DHT22;9517;51.174;4.160;2024-02-21T08:14:17;9.30;99.90
18777;DHT22;9517;51.174;4.160;2024-02-21T08:16:45;9.40;99.90
18777;DHT22;9517;51.174;4.160;2024-02-21T08:19:12;9.40;99.90
18777;DHT22;9517;51.174;4.160;2024-02-21T08:21:39;9.60;99.90
18777;DHT22;9517;51.174;4.160;2024-02-21T08:24:06;9.50;99.90
18777;DHT22;9517;51.174;4.160;2024-02-21T08:26:33;9.50;99.90
18777;DHT22;9517;51.174;4.160;2024-02-21T08:29:03;9.50;99.90
18777;DHT22;9517;51.174;4.160;2024-02-21T08:31:30;9.50;99.90
18777;DHT22;9517;51.174;4.160;2024-02-21T08:33:58;9.60;99.90
18777;DHT22;9517;51.174;4.160;2024-02-21T08:36:28;9.60;99.90
18777;DHT22;9517;51.174;4.160;2024-02-21T08:38:56;9.50;99.90
18777;DHT22;9517;51.174;4.160;2024-02-21T08:41:23;9.40;99.90
18777;DHT22;9517;51.174;4.160;2024-02-21T08:43:50;9.50;99.90
18777;DHT22;9517;51.174;4.160;2024-02-21T08:46:21;9.50;99.90
18777;DHT22;9517;51.174;4.160;2024-02-21T08:48:50;9.50;99.90
18777;DHT22;9517;51.174;4.160;2024-02-21T08:51:18;9.50;99.90
18777;DHT22;9517;51.174;4.160;2024-02-21T08:53:46;9.60;99.90
18777;DHT22;9517;51.174;4.160;2024-02-21T08:56:13;9.70;99.90
18777;DHT22;9517;51.174;4.160;2024-02-21T08:58:40;9.60;99.90
18777;DHT22;9517;51.174;4.160;2024-02-21T09:01:08;9.90;99.90
18777;DHT22;9517;51.174;4.160;2024-02-21T09:03:38;9.80;99.90
18777;DHT22;9517;51.174;4.160;2024-02-21T09:06:06;9.90;99.90
18777;DHT22;9517;51.174;4.160;2024-02-21T09:08:34;10.00;99.90
18777;DHT22;9517;51.174;4.160;2024-02-21T09:11:01;10.10;99.90
18777;DHT22;9517;51.174;4.160;2024-02-21T09:13:28;10.10;99.90
18777;DHT22;9517;51.174;4.160;2024-02-21T09:15:56;10.20;99.90
18777;DHT22;9517;51.174;4.160;2024-02-21T09:18:23;10.20;99.90
18777;DHT22;9517;51.174;4.160;2024-02-21T09:20:52;10.20;99.90
18777;DHT22;9517;51.174;4.160;2024-02-21T09:23:19;10.30;99.90
18777;DHT22;9517;51.174;4.160;2024-02-21T09:25:47;10.20;99.90
18777;DHT22;9517;51.174;4.160;2024-02-21T09:28:14;10.30;99.90
18777;DHT22;9517;51.174;4.160;2024-02-21T09:30:41;10.10;99.90
18777;DHT22;9517;51.174;4.160;2024-02-21T09:33:08;10.20;99.90
18777;DHT22;9517;51.174;4.160;2024-02-21T09:35:35;10.30;99.90
18777;DHT22;9517;51.174;4.160;2024-02-21T09:38:04;10.30;99.90
18777;DHT22;9517;51.174;4.160;2024-02-21T09:40:32;10.20;99.90
18777;DHT22;9517;51.174;4.160;2024-02-21T09:43:02;10.30;99.90
18777;DHT22;9517;51.174;4.160;2024-02-21T09:45:33;10.30;99.90
18777;DHT22;9517;51.174;4.160;2024-02-21T09:48:16;10.20;99.90
18777;DHT22;9517;51.174;4.160;2024-02-21T09:50:47;10.10;99.90
18777;DHT22;9517;51.174;4.160;2024-02-21T09:53:18;10.20;99.90
18777;DHT22;9517;51.174;4.160;2024-02-21T09:55:46;10.30;99.90
18777;DHT22;9517;51.174;4.160;2024-02-21T09:58:15;10.40;99.90
18777;DHT22;9517;51.174;4.160;2024-02-21T10:00:43;10.50;99.90
18777;DHT22;9517;51.174;4.160;2024-02-21T10:03:10;10.60;99.90
18777;DHT22;9517;51.174;4.160;2024-02-21T10:05:38;10.30;99.90
18777;DHT22;9517;51.174;4.160;2024-02-21T10:08:06;10.20;99.90
18777;DHT22;9517;51.174;4.160;2024-02-21T10:10:42;10.50;99.90
18777;DHT22;9517;51.174;4.160;2024-02-21T10:13:10;10.40;99.90
18777;DHT22;9517;51.174;4.160;2024-02-21T10:15:37;10.20;99.90
18777;DHT22;9517;51.174;4.160;2024-02-21T10:18:05;10.20;99.90
18777;DHT22;9517;51.174;4.160;2024-02-21T10:20:32;10.30;99.90
18777;DHT22;9517;51.174;4.160;2024-02-21T10:23:03;10.50;99.90
18777;DHT22;9517;51.174;4.160;2024-02-21T10:25:34;10.50;99.90
18777;DHT22;9517;51.174;4.160;2024-02-21T10:28:04;10.50;99.90
18777;DHT22;9517;51.174;4.160;2024-02-21T10:30:31;10.50;99.90
18777;DHT22;9517;51.174;4.160;2024-02-21T10:32:58;10.50;99.90
18777;DHT22;9517;51.174;4.160;2024-02-21T10:35:26;10.40;99.90
18777;DHT22;9517;51.174;4.160;2024-02-21T10:37:55;10.50;99.90
18777;DHT22;9517;51.174;4.160;2024-02-21T10:40:23;10.30;99.90
18777;DHT22;9517;51.174;4.160;2024-02-21T10:42:55;10.20;99.90
18777;DHT22;9517;51.174;4.160;2024-02-21T10:45:29;10.40;99.90
18777;DHT22;9517;51.174;4.160;2024-02-21T10:47:59;10.50;99.90
18777;DHT22;9517;51.174;4.160;2024-02-21T10:50:29;10.60;99.90
18777;DHT22;9517;51.174;4.160;2024-02-21T10:53:05;10.60;99.90
18777;DHT22;9517;51.174;4.160;2024-02-21T10:55:38;10.60;99.90
18777;DHT22;9517;51.174;4.160;2024-02-21T10:58:07;10.50;99.90
18777;DHT22;9517;51.174;4.160;2024-02-21T11:00:37;10.50;99.90
18777;DHT22;9517;51.174;4.160;2024-02-21T11:03:04;10.60;99.90
18777;DHT22;9517;51.174;4.160;2024-02-21T11:05:32;10.70;99.90
18777;DHT22;9517;51.174;4.160;2024-02-21T11:08:00;10.60;99.90
18777;DHT22;9517;51.174;4.160;2024-02-21T11:10:28;10.50;99.90
18777;DHT22;9517;51.174;4.160;2024-02-21T11:13:06;10.50;99.90
18777;DHT22;9517;51.174;4.160;2024-02-21T11:15:34;10.60;99.90
18777;DHT22;9517;51.174;4.160;2024-02-21T11:18:03;10.60;99.90
18777;DHT22;9517;51.174;4.160;2024-02-21T11:20:34;10.70;99.90
18777;DHT22;9517;51.174;4.160;2024-02-21T11:23:02;10.70;99.90
18777;DHT22;9517;51.174;4.160;2024-02-21T11:25:29;10.70;99.90
18777;DHT22;9517;51.174;4.160;2024-02-21T11:28:03;10.60;99.90
18777;DHT22;9517;51.174;4.160;2024-02-21T11:30:31;10.50;99.90
18777;DHT22;9517;51.174;4.160;2024-02-21T11:33:05;10.60;99.90
18777;DHT22;9517;51.174;4.160;2024-02-21T11:35:33;10.50;99.90
18777;DHT22;9517;51.174;4.160;2024-02-21T11:38:10;10.50;99.90
18777;DHT22;9517;51.174;4.160;2024-02-21T11:40:40;10.40;99.90
18777;DHT22;9517;51.174;4.160;2024-02-21T11:53:35;10.50;99.90
18777;DHT22;9517;51.174;4.160;2024-02-21T11:56:07;10.70;99.90
18777;DHT22;9517;51.174;4.160;2024-02-21T11:58:55;10.80;99.90
18777;DHT22;9517;51.174;4.160;2024-02-21T12:01:22;10.60;99.90
18777;DHT22;9517;51.174;4.160;2024-02-21T12:03:50;10.60;99.90
18777;DHT22;9517;51.174;4.160;2024-02-21T12:06:21;10.50;99.90
18777;DHT22;9517;51.174;4.160;2024-02-21T12:08:57;10.50;99.90
18777;DHT22;9517;51.174;4.160;2024-02-21T12:11:26;10.20;99.90
18777;DHT22;9517;51.174;4.160;2024-02-21T12:14:00;10.20;99.90
18777;DHT22;9517;51.174;4.160;2024-02-21T12:16:30;10.20;99.90
18777;DHT22;9517;51.174;4.160;2024-02-21T12:18:58;10.30;99.90
18777;DHT22;9517;51.174;4.160;2024-02-21T12:21:31;10.30;99.90
18777;DHT22;9517;51.174;4.160;2024-02-21T12:24:01;10.40;99.90
18777;DHT22;9517;51.174;4.160;2024-02-21T12:26:38;10.20;99.90
18777;DHT22;9517;51.174;4.160;2024-02-21T12:29:09;10.20;99.90
18777;DHT22;9517;51.174;4.160;2024-02-21T12:31:46;10.20;99.90
18777;DHT22;9517;51.174;4.160;2024-02-21T12:34:15;10.40;99.90
18777;DHT22;9517;51.174;4.160;2024-02-21T12:36:49;10.40;99.90
18777;DHT22;9517;51.174;4.160;2024-02-21T12:39:19;10.40;99.90
18777;DHT22;9517;51.174;4.160;2024-02-21T12:41:53;10.50;99.90
18777;DHT22;9517;51.174;4.160;2024-02-21T12:44:24;10.60;99.90
18777;DHT22;9517;51.174;4.160;2024-02-21T12:46:54;10.70;99.90
18777;DHT22;9517;51.174;4.160;2024-02-21T12:49:25;10.70;99.90
18777;DHT22;9517;51.174;4.160;2024-02-21T12:51:55;10.90;99.90
18777;DHT22;9517;51.174;4.160;2024-02-21T12:54:24;10.80;99.90
18777;DHT22;9517;51.174;4.160;2024-02-21T12:56:51;10.70;99.90
18777;DHT22;9517;51.174;4.160;2024-02-21T12:59:19;10.50;99.90
18777;DHT22;9517;51.174;4.160;2024-02-21T13:01:47;10.70;99.90
18777;DHT22;9517;51.174;4.160;2024-02-21T13:04:14;10.70;99.90
18777;DHT22;9517;51.174;4.160;2024-02-21T13:06:42;10.70;99.90
18777;DHT22;9517;51.174;4.160;2024-02-21T13:09:10;10.70;99.90
18777;DHT22;9517;51.174;4.160;2024-02-21T13:11:41;10.80;99.90
18777;DHT22;9517;51.174;4.160;2024-02-21T13:14:12;10.80;99.90
18777;DHT22;9517;51.174;4.160;2024-02-21T13:16:39;10.80;99.90
18777;DHT22;9517;51.174;4.160;2024-02-21T13:19:06;10.90;99.90
18777;DHT22;9517;51.174;4.160;2024-02-21T13:21:34;10.90;99.90
18777;DHT22;9517;51.174;4.160;2024-02-21T13:24:04;11.00;99.90
18777;DHT22;9517;51.174;4.160;2024-02-21T13:26:34;11.20;99.90
18777;DHT22;9517;51.174;4.160;2024-02-21T13:29:06;11.10;99.90
18777;DHT22;9517;51.174;4.160;2024-02-21T13:31:37;11.20;99.90
18777;DHT22;9517;51.174;4.160;2024-02-21T13:34:05;11.00;99.90
18777;DHT22;9517;51.174;4.160;2024-02-21T13:36:32;10.90;99.90
18777;DHT22;9517;51.174;4.160;2024-02-21T13:39:00;10.70;99.90
18777;DHT22;9517;51.174;4.160;2024-02-21T13:41:27;10.70;99.90
18777;DHT22;9517;51.174;4.160;2024-02-21T13:43:55;10.70;99.90
18777;DHT22;9517;51.174;4.160;2024-02-21T13:46:24;10.50;99.90
18777;DHT22;9517;51.174;4.160;2024-02-21T13:48:54;10.40;99.90
18777;DHT22;9517;51.174;4.160;2024-02-21T13:51:30;10.30;99.90
18777;DHT22;9517;51.174;4.160;2024-02-21T13:53:57;10.30;99.90
18777;DHT22;9517;51.174;4.160;2024-02-21T13:56:25;10.20;99.90
18777;DHT22;9517;51.174;4.160;2024-02-21T13:58:52;10.20;99.90
18777;DHT22;9517;51.174;4.160;2024-02-21T14:01:20;10.40;99.90
18777;DHT22;9517;51.174;4.160;2024-02-21T14:03:52;10.20;99.90
18777;DHT22;9517;51.174;4.160;2024-02-21T14:06:19;10.30;99.90
18777;DHT22;9517;51.174;4.160;2024-02-21T14:08:46;10.20;99.90
18777;DHT22;9517;51.174;4.160;2024-02-21T14:11:14;10.20;99.90
18777;DHT22;9517;51.174;4.160;2024-02-21T14:13:41;10.30;99.90
18777;DHT22;9517;51.174;4.160;2024-02-21T14:16:09;10.30;99.90
18777;DHT22;9517;51.174;4.160;2024-02-21T14:18:39;10.20;99.90
18777;DHT22;9517;51.174;4.160;2024-02-21T14:21:09;10.20;99.90
18777;DHT22;9517;51.174;4.160;2024-02-21T14:23:37;10.00;99.90
18777;DHT22;9517;51.174;4.160;2024-02-21T14:43:31;9.70;99.90
18777;DHT22;9517;51.174;4.160;2024-02-21T14:46:00;9.80;99.90
18777;DHT22;9517;51.174;4.160;2024-02-21T14:48:30;9.80;99.90
18777;DHT22;9517;51.174;4.160;2024-02-21T14:50:58;9.80;99.90
18777;DHT22;9517;51.174;4.160;2024-02-21T14:53:26;9.80;99.90
18777;DHT22;9517;51.174;4.160;2024-02-21T14:55:55;9.70;99.90
18777;DHT22;9517;51.174;4.160;2024-02-21T14:58:23;9.70;99.90
18777;DHT22;9517;51.174;4.160;2024-02-21T15:00:58;9.70;99.90
18777;DHT22;9517;51.174;4.160;2024-02-21T15:03:26;9.70;99.90
18777;DHT22;9517;51.174;4.160;2024-02-21T15:05:59;9.50;99.90
18777;DHT22;9517;51.174;4.160;2024-02-21T15:08:30;9.50;99.90
18777;DHT22;9517;51.174;4.160;2024-02-21T15:11:00;9.60;99.90
18777;DHT22;9517;51.174;4.160;2024-02-21T15:13:27;9.40;99.90
18777;DHT22;9517;51.174;4.160;2024-02-21T15:15:57;9.40;99.90
18777;DHT22;9517;51.174;4.160;2024-02-21T15:18:25;9.40;99.90
18777;DHT22;9517;51.174;4.160;2024-02-21T15:20:53;9.30;99.90
18777;DHT22;9517;51.174;4.160;2024-02-21T15:23:24;9.30;99.90
18777;DHT22;9517;51.174;4.160;2024-02-21T15:25:51;9.30;99.90
18777;DHT22;9517;51.174;4.160;2024-02-21T15:28:19;9.50;99.90
18777;DHT22;9517;51.174;4.160;2024-02-21T15:30:47;9.40;99.90
18777;DHT22;9517;51.174;4.160;2024-02-21T15:33:18;9.50;99.90
18777;DHT22;9517;51.174;4.160;2024-02-21T15:35:46;9.50;99.90
18777;DHT22;9517;51.174;4.160;2024-02-21T15:38:17;9.50;99.90
18777;DHT22;9517;51.174;4.160;2024-02-21T15:40:45;9.60;99.90
18777;DHT22;9517;51.174;4.160;2024-02-21T15:43:16;9.50;99.90
18777;DHT22;9517;51.174;4.160;2024-02-21T15:45:44;9.40;99.90
18777;DHT22;9517;51.174;4.160;2024-02-21T15:48:14;9.50;99.90
18777;DHT22;9517;51.174;4.160;2024-02-21T15:50:43;9.50;99.90
18777;DHT22;9517;51.174;4.160;2024-02-21T15:53:11;9.60;99.90
18777;DHT22;9517;51.174;4.160;2024-02-21T15:55:38;9.50;99.90
18777;DHT22;9517;51.174;4.160;2024-02-21T15:58:05;9.50;99.90
18777;DHT22;9517;51.174;4.160;2024-02-21T16:00:33;9.50;99.90
18777;DHT22;9517;51.174;4.160;2024-02-21T16:03:00;9.40;99.90
18777;DHT22;9517;51.174;4.160;2024-02-21T16:05:30;9.40;99.90
18777;DHT22;9517;51.174;4.160;2024-02-21T16:07:59;9.40;99.90
18777;DHT22;9517;51.174;4.160;2024-02-21T16:10:27;9.30;99.90
18777;DHT22;9517;51.174;4.160;2024-02-21T16:12:55;9.50;99.90
18777;DHT22;9517;51.174;4.160;2024-02-21T16:15:23;9.40;99.90
18777;DHT22;9517;51.174;4.160;2024-02-21T16:17:51;9.50;99.90
18777;DHT22;9517;51.174;4.160;2024-02-21T16:20:18;9.40;99.90
18777;DHT22;9517;51.174;4.160;2024-02-21T16:22:46;9.30;99.90
18777;DHT22;9517;51.174;4.160;2024-02-21T16:25:16;9.40;99.90
18777;DHT22;9517;51.174;4.160;2024-02-21T16:27:46;9.30;99.90
18777;DHT22;9517;51.174;4.160;2024-02-21T16:30:14;9.30;99.90
18777;DHT22;9517;51.174;4.160;2024-02-21T16:32:43;9.40;99.90
18777;DHT22;9517;51.174;4.160;2024-02-21T16:35:11;9.40;99.90
18777;DHT22;9517;51.174;4.160;2024-02-21T16:37:39;9.50;99.90
18777;DHT22;9517;51.174;4.160;2024-02-21T16:40:07;9.40;99.90
18777;DHT22;9517;51.174;4.160;2024-02-21T16:42:38;9.40;99.90
18777;DHT22;9517;51.174;4.160;2024-02-21T16:45:07;9.50;99.90
18777;DHT22;9517;51.174;4.160;2024-02-21T16:47:34;9.40;99.90
18777;DHT22;9517;51.174;4.160;2024-02-21T16:50:02;9.40;99.90
18777;DHT22;9517;51.174;4.160;2024-02-21T16:52:31;9.50;99.90
18777;DHT22;9517;51.174;4.160;2024-02-21T16:54:58;9.40;99.90
18777;DHT22;9517;51.174;4.160;2024-02-21T16:57:25;9.40;99.90
18777;DHT22;9517;51.174;4.160;2024-02-21T16:59:55;9.30;99.90
18777;DHT22;9517;51.174;4.160;2024-02-21T17:02:22;9.40;99.90
18777;DHT22;9517;51.174;4.160;2024-02-21T17:04:50;9.40;99.90
18777;DHT22;9517;51.174;4.160;2024-02-21T17:07:20;9.50;99.90
18777;DHT22;9517;51.174;4.160;2024-02-21T17:09:53;9.50;99.90
18777;DHT22;9517;51.174;4.160;2024-02-21T17:12:27;9.40;99.90
18777;DHT22;9517;51.174;4.160;2024-02-21T17:15:04;9.40;99.90
18777;DHT22;9517;51.174;4.160;2024-02-21T17:17:37;9.50;99.90
18777;DHT22;9517;51.174;4.160;2024-02-21T17:20:05;9.40;99.90